Stations météo

Publicité
Puerto Plata, République Dominicaine (78457): Température de l'air & dewpoint: 15.01.2019 22:00:00 - 21.01.2019 22:00:00 (AST)Puerto Plata, République Dominicaine (78457): Vitesse du vent: 15.01.2019 22:00:00 - 21.01.2019 22:00:00 (AST)Puerto Plata, République Dominicaine (78457): Direction du vent: 15.01.2019 22:00:00 - 21.01.2019 22:00:00 (AST)Puerto Plata, République Dominicaine (78457): visibility: 15.01.2019 22:00:00 - 21.01.2019 22:00:00 (AST)
Date & Time tt [°C] td [°C] ff [km/h] ff [knt] dd vv [km]
21.01.2019 22:00:00 22,0 21,0 15 8 E 10
21.01.2019 21:00:00 22,0 21,0 0 0 N 10
21.01.2019 20:00:00 24,0 22,0 0 0 N 10
21.01.2019 19:00:00 28,0 22,0 9 5 E 10
21.01.2019 18:00:00 27,0 22,0 9 5 E 10
21.01.2019 17:00:00 29,0 22,0 18 10 NE 10
21.01.2019 16:00:00 28,0 23,0 18 10 NNE 10
21.01.2019 15:00:00 29,0 23,0 18 10 NNE 10
21.01.2019 14:00:00 29,0 21,0 11 6 NNE 10
21.01.2019 13:00:00 29,0 20,0 9 5 NNE 10
21.01.2019 12:00:00 28,0 19,0 11 6 NE 10
21.01.2019 11:00:00 27,0 20,0 8 4 NE 10
21.01.2019 10:00:00 23,0 22,0 0 0 N 10
21.01.2019 09:00:00 21,0 20,0 0 0 N 10
21.01.2019 08:00:00 19,0 18,0 0 0 N 10
21.01.2019 07:00:00 19,0 19,0 0 0 N 10
21.01.2019 06:00:00 - - - - - -
21.01.2019 05:00:00 21,0 20,0 0 0 N 10
21.01.2019 04:00:00 - - - - - -
21.01.2019 03:00:00 - - - - - -
21.01.2019 02:00:00 23,0 22,0 0 0 N 10
21.01.2019 01:00:00 - - - - - -
21.01.2019 00:00:00 - - - - - -
20.01.2019 23:00:00 23,0 20,0 9 5 E 10
20.01.2019 22:00:00 23,0 21,0 9 5 E 10
20.01.2019 21:00:00 24,0 21,0 9 5 E 10
20.01.2019 20:00:00 25,0 21,0 18 10 ESE 10
20.01.2019 19:00:00 25,0 22,0 18 10 E 10
20.01.2019 18:00:00 26,0 22,0 16 9 E 10
20.01.2019 17:00:00 29,0 21,0 15 8 ENE 10
20.01.2019 16:00:00 30,0 20,0 18 10 E 10
20.01.2019 15:00:00 30,0 20,0 13 7 SE 10
20.01.2019 14:00:00 30,0 20,0 13 7 SE 10
20.01.2019 13:00:00 29,0 21,0 13 7 S 10
20.01.2019 12:00:00 29,0 21,0 9 5 S 10
20.01.2019 11:00:00 28,0 21,0 18 10 ESE 10
20.01.2019 10:00:00 26,0 21,0 11 6 SSE 10
20.01.2019 09:00:00 22,0 19,0 0 0 N 10
20.01.2019 08:00:00 19,0 18,0 0 0 N 10
20.01.2019 07:00:00 19,0 19,0 0 0 N 10
20.01.2019 06:00:00 - - - - - -
20.01.2019 05:00:00 20,0 20,0 0 0 N 10
20.01.2019 04:00:00 - - - - - -
20.01.2019 03:00:00 - - - - - -
20.01.2019 02:00:00 23,0 20,0 0 0 N 10
20.01.2019 01:00:00 - - - - - -
20.01.2019 00:00:00 - - - - - -
19.01.2019 23:00:00 23,0 20,0 9 5 ESE 10
19.01.2019 22:00:00 24,0 20,0 9 5 ESE 10
19.01.2019 21:00:00 24,0 20,0 18 10 ESE 10
19.01.2019 20:00:00 24,0 20,0 18 10 E 10
19.01.2019 19:00:00 26,0 22,0 18 10 E 10
19.01.2019 18:00:00 26,0 22,0 18 10 E 10
19.01.2019 17:00:00 27,0 22,0 22 12 E 10
19.01.2019 16:00:00 27,0 21,0 18 10 E 10
19.01.2019 15:00:00 28,0 22,0 22 12 E 10
19.01.2019 14:00:00 28,0 22,0 18 10 E 10
19.01.2019 13:00:00 28,0 22,0 18 10 ENE 10
19.01.2019 12:00:00 27,0 22,0 18 10 ENE 10
19.01.2019 11:00:00 27,0 22,0 18 10 ENE 10
19.01.2019 10:00:00 24,0 20,0 0 0 N 10
19.01.2019 09:00:00 22,0 19,0 0 0 N 10
19.01.2019 08:00:00 18,0 18,0 0 0 N 10
19.01.2019 07:00:00 20,0 19,0 0 0 N 10
19.01.2019 06:00:00 - - - - - -
19.01.2019 05:00:00 20,0 19,0 0 0 N 10
19.01.2019 04:00:00 - - - - - -
19.01.2019 03:00:00 - - - - - -
19.01.2019 02:00:00 19,0 18,0 0 0 N 10
19.01.2019 01:00:00 - - - - - -
19.01.2019 00:00:00 - - - - - -
18.01.2019 23:00:00 23,0 22,0 0 0 N 10
18.01.2019 22:00:00 24,0 22,0 0 0 N 10
18.01.2019 21:00:00 24,0 22,0 0 0 N 10
18.01.2019 20:00:00 24,0 22,0 9 5 E 10
18.01.2019 19:00:00 26,0 22,0 9 5 E 10
18.01.2019 18:00:00 26,0 23,0 15 8 E 10
18.01.2019 17:00:00 27,0 23,0 18 10 E 10
18.01.2019 16:00:00 29,0 22,0 18 10 ENE 10
18.01.2019 15:00:00 29,0 22,0 18 10 ENE 10
18.01.2019 14:00:00 28,0 22,0 18 10 ENE 10
18.01.2019 13:00:00 27,0 21,0 18 10 ENE 10
18.01.2019 12:00:00 28,0 22,0 15 8 ENE 10
18.01.2019 11:00:00 27,0 22,0 0 0 N 10
18.01.2019 10:00:00 26,0 22,0 0 0 N 10
18.01.2019 09:00:00 21,0 19,0 0 0 N 10
18.01.2019 08:00:00 19,0 19,0 0 0 N 10
18.01.2019 07:00:00 19,0 18,0 0 0 N 10
18.01.2019 06:00:00 - - - - - -
18.01.2019 05:00:00 19,0 18,0 0 0 N 10
18.01.2019 04:00:00 - - - - - -
18.01.2019 03:00:00 - - - - - -
18.01.2019 02:00:00 19,0 19,0 0 0 N 10
18.01.2019 01:00:00 - - - - - -
18.01.2019 00:00:00 - - - - - -
17.01.2019 23:00:00 20,0 18,0 0 0 N 10
17.01.2019 22:00:00 19,0 19,0 0 0 N 10
17.01.2019 21:00:00 20,0 19,0 0 0 N 10
17.01.2019 20:00:00 21,0 19,0 0 0 N 10
17.01.2019 19:00:00 24,0 20,0 0 0 N 10
17.01.2019 18:00:00 26,0 19,0 18 10 E 10
17.01.2019 17:00:00 27,0 19,0 15 8 E 10
17.01.2019 16:00:00 28,0 21,0 15 8 E 10
17.01.2019 15:00:00 28,0 21,0 18 10 ENE 10
17.01.2019 14:00:00 28,0 21,0 18 10 ENE 10
17.01.2019 13:00:00 28,0 21,0 15 8 E 10
17.01.2019 12:00:00 28,0 21,0 18 10 ENE 10
17.01.2019 11:00:00 27,0 21,0 18 10 E 10
17.01.2019 10:00:00 25,0 21,0 9 5 E 10
17.01.2019 09:00:00 20,0 18,0 0 0 N 10
17.01.2019 08:00:00 18,0 18,0 0 0 N 10
17.01.2019 07:00:00 18,0 17,0 0 0 N 10
17.01.2019 06:00:00 - - - - - -
17.01.2019 05:00:00 19,0 18,0 0 0 N 10
17.01.2019 04:00:00 - - - - - -
17.01.2019 03:00:00 - - - - - -
17.01.2019 02:00:00 19,0 19,0 0 0 N 10
17.01.2019 01:00:00 - - - - - -
17.01.2019 00:00:00 - - - - - -
16.01.2019 23:00:00 20,0 20,0 0 0 N 10
16.01.2019 22:00:00 20,0 20,0 0 0 N 10
16.01.2019 21:00:00 21,0 20,0 0 0 N 10
16.01.2019 20:00:00 22,0 21,0 0 0 N 10
16.01.2019 19:00:00 24,0 22,0 9 5 E 10
16.01.2019 18:00:00 27,0 21,0 15 8 E 10
16.01.2019 17:00:00 28,0 21,0 15 8 ENE 10
16.01.2019 16:00:00 28,0 22,0 15 8 ENE 10
16.01.2019 15:00:00 28,0 21,0 18 10 ENE 10
16.01.2019 14:00:00 28,0 21,0 15 8 NE 10
16.01.2019 13:00:00 28,0 22,0 11 6 N 10
16.01.2019 12:00:00 27,0 22,0 11 6 NNW 10
16.01.2019 11:00:00 27,0 21,0 11 6 N 10
16.01.2019 10:00:00 26,0 21,0 0 0 N 10
16.01.2019 09:00:00 - - - - - -
16.01.2019 08:00:00 18,0 17,0 0 0 N 10
16.01.2019 07:00:00 18,0 17,0 0 0 N 10
16.01.2019 06:00:00 - - - - - -
16.01.2019 05:00:00 19,0 19,0 0 0 N 10
16.01.2019 04:00:00 - - - - - -
16.01.2019 03:00:00 - - - - - -
16.01.2019 02:00:00 19,0 19,0 11 6 ESE 10
16.01.2019 01:00:00 - - - - - -
16.01.2019 00:00:00 - - - - - -
15.01.2019 23:00:00 20,0 19,0 0 0 N 10
15.01.2019 22:00:00 20,0 20,0 0 0 N 10

tt = Température de l'air
td = dewpoint
ff = Vitesse du vent
dd = Direction du vent
vv = visibility

stations d'obs. à proximité